Time;durP1;ratioP1;P1;durP2;ratioP2;P2;SDS_P1;SDS_P2;PMS_P1;PMS_P2;Temp;Humidity;BMP_temperature;BMP_pressure;BME280_temperature;BME280_humidity;BME280_pressure;Samples;Min_cycle;Max_cycle;Signal;HPM_P1;HPM_P2
2021/12/25 00:03:51;;;;;;;14.67;9.80;;;;;;;;;;10416291;28;20029;-58
2021/12/25 00:08:52;;;;;;;15.55;9.18;;;;;;;;;;10405400;28;20462;-58
2021/12/25 00:13:52;;;;;;;14.30;9.50;;;;;;;;;;10409741;28;20038;-58
2021/12/25 00:18:52;;;;;;;11.53;8.33;;;;;;;;;;10420387;28;20393;-58
2021/12/25 00:23:53;;;;;;;12.70;9.10;;;;;;;;;;10409322;28;20486;-57
2021/12/25 09:10:05;;;;;;;15.65;9.85;;;;;;;;;;10586302;27;1286612;-56
2021/12/25 09:15:06;;;;;;;28.85;11.05;;;;;;;;;;10596023;28;20027;-52
2021/12/25 09:20:08;;;;;;;17.77;10.93;;;;;;;;;;10598852;27;20106;-47
2021/12/25 09:25:08;;;;;;;19.33;9.93;;;;;;;;;;10606044;27;20047;-46
2021/12/25 09:30:11;;;;;;;18.00;10.88;;;;;;;;;;10596903;27;20130;-50
2021/12/25 09:35:12;;;;;;;15.35;10.48;;;;;;;;;;10600384;27;20042;-51
2021/12/25 09:40:12;;;;;;;18.25;11.10;;;;;;;;;;10606889;28;20089;-49
2021/12/25 09:45:13;;;;;;;23.73;11.02;;;;;;;;;;10603215;27;20035;-54
2021/12/25 09:50:15;;;;;;;19.70;10.85;;;;;;;;;;10604981;27;20377;-50
2021/12/25 09:55:16;;;;;;;17.27;11.38;;;;;;;;;;10591180;27;20493;-49
2021/12/25 10:00:20;;;;;;;13.07;10.52;;;;;;;;;;10593308;28;20041;-51
2021/12/25 10:05:43;;;;;;;17.40;10.52;;;;;;;;;;10589849;27;20263;-52
2021/12/25 10:10:44;;;;;;;21.58;10.77;;;;;;;;;;10592372;27;20526;-51
2021/12/25 10:15:45;;;;;;;18.17;10.20;;;;;;;;;;10591953;27;20482;-51
2021/12/25 10:20:45;;;;;;;17.67;10.50;;;;;;;;;;10572155;27;20043;-52
2021/12/25 10:25:52;;;;;;;14.90;10.53;;;;;;;;;;10573697;28;20031;-51
2021/12/25 10:31:02;;;;;;;18.25;10.63;;;;;;;;;;10557170;28;20539;-51
2021/12/25 10:36:10;;;;;;;15.82;10.30;;;;;;;;;;10563655;28;20016;-47
2021/12/25 10:41:20;;;;;;;14.43;9.98;;;;;;;;;;10562613;28;20036;-51
2021/12/25 10:46:20;;;;;;;15.20;10.55;;;;;;;;;;10563361;28;20032;-48
2021/12/25 10:51:27;;;;;;;17.05;10.13;;;;;;;;;;10573629;28;20050;-50
2021/12/25 10:56:36;;;;;;;14.07;9.48;;;;;;;;;;10557709;28;20020;-53
2021/12/25 11:01:43;;;;;;;18.85;11.00;;;;;;;;;;10566350;28;20096;-54
2021/12/25 11:06:44;;;;;;;14.82;10.65;;;;;;;;;;10562205;28;20039;-53
2021/12/25 11:11:44;;;;;;;14.40;9.70;;;;;;;;;;10557387;28;20031;-53
2021/12/25 11:16:52;;;;;;;13.83;9.80;;;;;;;;;;10567501;28;20969;-54
2021/12/25 11:21:54;;;;;;;12.77;9.25;;;;;;;;;;10557500;28;20497;-51
2021/12/25 11:27:04;;;;;;;15.85;10.15;;;;;;;;;;10563610;27;20036;-53
2021/12/25 11:32:08;;;;;;;13.30;9.13;;;;;;;;;;10557075;28;20024;-52
2021/12/25 11:37:09;;;;;;;15.65;9.82;;;;;;;;;;10559762;27;20371;-52
2021/12/25 11:42:10;;;;;;;13.97;9.47;;;;;;;;;;10569318;28;20035;-51
2021/12/25 11:47:37;;;;;;;14.93;9.82;;;;;;;;;;10552352;28;20469;-48
2021/12/25 11:52:46;;;;;;;14.57;9.45;;;;;;;;;;10570704;28;20028;-48
2021/12/25 11:58:15;;;;;;;12.75;9.45;;;;;;;;;;10560411;28;20111;-51
2021/12/25 12:03:41;;;;;;;14.63;8.70;;;;;;;;;;10559273;28;20110;-51
2021/12/25 12:08:54;;;;;;;13.60;10.00;;;;;;;;;;10564344;28;20044;-52
2021/12/25 12:14:14;;;;;;;12.88;8.70;;;;;;;;;;10553906;28;20020;-54
2021/12/25 12:19:33;;;;;;;12.38;9.45;;;;;;;;;;10565855;28;20031;-52
2021/12/25 12:29:45;;;;;;;13.45;8.82;;;;;;;;;;10559187;28;20490;-52
2021/12/25 12:34:51;;;;;;;13.25;8.65;;;;;;;;;;10551437;28;20028;-52
2021/12/25 12:39:58;;;;;;;14.07;10.00;;;;;;;;;;10557852;28;20391;-52
2021/12/25 12:45:11;;;;;;;14.90;9.10;;;;;;;;;;10550347;28;20527;-53
2021/12/25 12:50:11;;;;;;;13.30;8.90;;;;;;;;;;10565832;28;20049;-51
2021/12/25 12:55:29;;;;;;;14.05;9.05;;;;;;;;;;10557680;28;20089;-50
2021/12/25 13:00:30;;;;;;;10.30;8.10;;;;;;;;;;10558426;28;20031;-54
2021/12/25 13:05:38;;;;;;;13.17;9.27;;;;;;;;;;10573562;28;20042;-49
2021/12/25 13:10:47;;;;;;;11.63;8.48;;;;;;;;;;10558692;28;20773;-48
2021/12/25 13:15:49;;;;;;;;;;;;;;;;;;10553234;28;20032;-52
2021/12/25 13:20:52;;;;;;;13.95;9.77;;;;;;;;;;10560008;28;19923;-53
2021/12/25 13:25:53;;;;;;;13.25;8.60;;;;;;;;;;10556194;28;20027;-53
2021/12/25 13:30:57;;;;;;;14.80;8.93;;;;;;;;;;10557889;28;20042;-50
2021/12/25 13:35:59;;;;;;;12.88;8.57;;;;;;;;;;10566499;28;20120;-53
2021/12/25 13:40:59;;;;;;;12.38;8.65;;;;;;;;;;10549388;28;20073;-52
2021/12/25 13:46:00;;;;;;;11.83;8.63;;;;;;;;;;10544574;28;20479;-51
2021/12/25 13:51:02;;;;;;;11.37;8.03;;;;;;;;;;10558421;28;20464;-52
2021/12/25 13:56:08;;;;;;;12.07;8.68;;;;;;;;;;10559724;28;20028;-52
2021/12/25 14:01:14;;;;;;;13.52;8.63;;;;;;;;;;10571060;28;20427;-50
2021/12/25 14:06:14;;;;;;;10.45;7.75;;;;;;;;;;10565006;28;20390;-53
2021/12/25 14:11:15;;;;;;;10.40;8.27;;;;;;;;;;10563524;28;20024;-48
2021/12/25 14:16:15;;;;;;;12.27;8.38;;;;;;;;;;10560060;28;20491;-50
2021/12/25 14:21:21;;;;;;;10.75;8.75;;;;;;;;;;10556759;28;20020;-52
2021/12/25 14:26:21;;;;;;;10.93;8.23;;;;;;;;;;10564345;28;20039;-50
2021/12/25 14:31:22;;;;;;;12.18;8.15;;;;;;;;;;10563373;28;20028;-52
2021/12/25 14:36:25;;;;;;;11.38;8.38;;;;;;;;;;10567916;28;20032;-51
2021/12/25 14:41:34;;;;;;;14.52;9.07;;;;;;;;;;10557501;28;20149;-50
2021/12/25 14:46:34;;;;;;;10.90;7.78;;;;;;;;;;10563890;28;20105;-52
2021/12/25 14:51:37;;;;;;;9.70;7.60;;;;;;;;;;10567118;28;20094;-48
2021/12/25 14:56:46;;;;;;;11.32;8.50;;;;;;;;;;10567413;28;20453;-50
2021/12/25 15:01:49;;;;;;;14.13;9.05;;;;;;;;;;10559782;28;20076;-50
2021/12/25 15:06:54;;;;;;;11.43;8.15;;;;;;;;;;10564486;28;20048;-50
2021/12/25 15:12:04;;;;;;;9.52;7.93;;;;;;;;;;10560356;28;20039;-54
2021/12/25 15:17:10;;;;;;;10.38;7.78;;;;;;;;;;10562084;28;20027;-53
2021/12/25 15:22:14;;;;;;;9.30;7.68;;;;;;;;;;10565184;28;20032;-50
2021/12/25 15:27:41;;;;;;;10.32;6.88;;;;;;;;;;10559425;28;20049;-53
2021/12/25 15:32:47;;;;;;;10.38;7.53;;;;;;;;;;10554516;28;20031;-50
2021/12/25 15:37:49;;;;;;;10.68;8.25;;;;;;;;;;10577872;28;20031;-53
2021/12/25 15:42:50;;;;;;;10.07;7.78;;;;;;;;;;10561855;28;20047;-49
2021/12/25 15:47:51;;;;;;;11.50;8.27;;;;;;;;;;10555285;28;20063;-53
2021/12/25 15:52:51;;;;;;;10.15;7.90;;;;;;;;;;10575970;28;20080;-51
2021/12/25 15:57:56;;;;;;;10.38;7.95;;;;;;;;;;10554142;28;20077;-51
2021/12/25 16:02:57;;;;;;;13.10;8.77;;;;;;;;;;10569044;28;20458;-50
2021/12/25 16:07:58;;;;;;;11.55;7.47;;;;;;;;;;10552558;28;20047;-52
2021/12/25 16:12:58;;;;;;;9.37;7.60;;;;;;;;;;10551802;28;20474;-51
2021/12/25 16:17:58;;;;;;;11.43;7.85;;;;;;;;;;10565117;28;20465;-53
2021/12/25 16:22:59;;;;;;;11.33;8.43;;;;;;;;;;10551706;28;20425;-53
2021/12/25 16:28:00;;;;;;;10.50;7.72;;;;;;;;;;10567604;28;20476;-54
2021/12/25 16:33:02;;;;;;;11.35;8.07;;;;;;;;;;10551253;28;20028;-50
2021/12/25 16:38:04;;;;;;;10.27;7.82;;;;;;;;;;10558298;28;20106;-50
2021/12/25 16:43:05;;;;;;;9.38;7.22;;;;;;;;;;10559002;28;20113;-53
2021/12/25 16:48:06;;;;;;;11.45;8.07;;;;;;;;;;10564108;28;20108;-51
2021/12/25 16:53:07;;;;;;;10.60;7.80;;;;;;;;;;10556499;28;20043;-54
2021/12/25 16:58:07;;;;;;;9.30;7.47;;;;;;;;;;10560764;28;20043;-51
2021/12/25 17:03:09;;;;;;;11.87;7.97;;;;;;;;;;10557617;28;20027;-48
2021/12/25 17:08:10;;;;;;;12.02;8.07;;;;;;;;;;10558697;28;20504;-52
2021/12/25 17:13:11;;;;;;;11.77;8.30;;;;;;;;;;10557408;28;20054;-51
2021/12/25 17:18:11;;;;;;;11.82;7.45;;;;;;;;;;10558455;28;20340;-51
2021/12/25 17:23:12;;;;;;;10.68;7.75;;;;;;;;;;10565958;28;20027;-50
2021/12/25 17:28:13;;;;;;;12.25;8.27;;;;;;;;;;10560050;28;20023;-51
2021/12/25 17:33:19;;;;;;;10.30;8.35;;;;;;;;;;10565623;28;20034;-51
2021/12/25 17:38:19;;;;;;;11.05;8.27;;;;;;;;;;10562372;28;20027;-52
2021/12/25 17:43:21;;;;;;;12.97;8.13;;;;;;;;;;10569879;28;20080;-54
2021/12/25 17:48:22;;;;;;;12.70;8.68;;;;;;;;;;10564706;28;20480;-48
2021/12/25 17:53:23;;;;;;;12.60;8.88;;;;;;;;;;10575002;28;20382;-51
2021/12/25 17:58:23;;;;;;;11.93;8.18;;;;;;;;;;10577543;28;20060;-52
2021/12/25 18:03:24;;;;;;;10.97;7.90;;;;;;;;;;10573819;28;20391;-54
2021/12/25 18:08:25;;;;;;;12.02;8.23;;;;;;;;;;10571121;28;20472;-51
2021/12/25 18:13:25;;;;;;;13.95;8.45;;;;;;;;;;10555786;28;20028;-47
2021/12/25 18:18:26;;;;;;;10.57;7.93;;;;;;;;;;10564134;28;20031;-45
2021/12/25 18:23:28;;;;;;;12.98;8.40;;;;;;;;;;10553944;28;20043;-48
2021/12/25 18:28:33;;;;;;;12.13;7.88;;;;;;;;;;10574419;28;20074;-48
2021/12/25 18:33:34;;;;;;;10.27;7.68;;;;;;;;;;10564795;28;20027;-50
2021/12/25 18:38:34;;;;;;;12.13;8.15;;;;;;;;;;10567367;28;20023;-39
2021/12/25 18:43:35;;;;;;;10.40;8.23;;;;;;;;;;10579818;28;20012;-39
2021/12/25 18:48:35;;;;;;;11.30;8.75;;;;;;;;;;10566694;28;20031;-41
2021/12/25 18:53:36;;;;;;;13.75;8.05;;;;;;;;;;10562450;28;20023;-40
2021/12/25 18:58:37;;;;;;;13.02;8.65;;;;;;;;;;10563804;28;20131;-41
2021/12/25 19:03:37;;;;;;;12.63;9.00;;;;;;;;;;10570590;28;20459;-42
2021/12/25 19:08:38;;;;;;;11.30;8.57;;;;;;;;;;10564217;28;20476;-39
2021/12/25 19:13:41;;;;;;;13.35;8.65;;;;;;;;;;10550477;28;20111;-39
2021/12/25 19:18:42;;;;;;;17.00;8.55;;;;;;;;;;10570015;28;20402;-40
2021/12/25 19:23:42;;;;;;;14.00;8.50;;;;;;;;;;10553634;28;20028;-41
2021/12/25 19:28:43;;;;;;;10.95;8.27;;;;;;;;;;10548300;28;20031;-40
2021/12/25 19:33:43;;;;;;;13.32;8.38;;;;;;;;;;10543389;28;20035;-41
2021/12/25 19:38:44;;;;;;;15.90;9.07;;;;;;;;;;10537644;28;20034;-40
2021/12/25 19:43:45;;;;;;;21.23;9.43;;;;;;;;;;10567895;28;20383;-39
2021/12/25 19:48:45;;;;;;;18.17;9.27;;;;;;;;;;10569266;28;20040;-39
2021/12/25 19:53:45;;;;;;;21.63;9.38;;;;;;;;;;10544465;28;20038;-39
2021/12/25 19:58:47;;;;;;;15.70;9.07;;;;;;;;;;10538215;28;20077;-49
2021/12/25 20:03:54;;;;;;;17.73;9.25;;;;;;;;;;10573612;28;20472;-48
2021/12/25 20:08:57;;;;;;;17.70;9.07;;;;;;;;;;10570517;28;20090;-48
2021/12/25 20:13:59;;;;;;;13.80;8.85;;;;;;;;;;10551041;28;20387;-48
2021/12/25 20:19:00;;;;;;;11.13;8.50;;;;;;;;;;10569402;28;20035;-49
2021/12/25 20:24:01;;;;;;;13.27;9.05;;;;;;;;;;10556349;28;20047;-50
2021/12/25 20:29:04;;;;;;;13.98;9.32;;;;;;;;;;10552851;28;20028;-50
2021/12/25 20:34:04;;;;;;;16.25;9.27;;;;;;;;;;10559296;28;20016;-46
2021/12/25 20:39:04;;;;;;;16.07;9.43;;;;;;;;;;10561875;28;20028;-47
2021/12/25 20:44:13;;;;;;;14.10;9.70;;;;;;;;;;10564843;28;20526;-49
2021/12/25 20:49:14;;;;;;;12.02;9.07;;;;;;;;;;10563250;28;21108;-47
2021/12/25 20:54:15;;;;;;;18.90;9.73;;;;;;;;;;10570079;28;20038;-47
2021/12/25 20:59:16;;;;;;;16.70;9.70;;;;;;;;;;10570209;28;20039;-50
2021/12/25 21:04:16;;;;;;;20.48;10.00;;;;;;;;;;10567997;28;20027;-48
2021/12/25 21:09:19;;;;;;;21.30;10.13;;;;;;;;;;10566089;28;20054;-51
2021/12/25 21:14:20;;;;;;;20.85;10.38;;;;;;;;;;10572917;28;20035;-47
2021/12/25 21:19:20;;;;;;;15.03;10.30;;;;;;;;;;10570252;28;20444;-47
2021/12/25 21:24:21;;;;;;;16.55;10.75;;;;;;;;;;10569830;28;20472;-48
2021/12/25 21:29:21;;;;;;;14.20;10.18;;;;;;;;;;10573445;28;20516;-48
2021/12/25 21:34:22;;;;;;;14.32;10.45;;;;;;;;;;10565932;28;20136;-47
2021/12/25 21:39:22;;;;;;;17.40;10.67;;;;;;;;;;10570804;28;20450;-49
2021/12/25 21:44:23;;;;;;;16.00;10.65;;;;;;;;;;10568459;28;20452;-46
2021/12/25 21:49:23;;;;;;;17.48;10.48;;;;;;;;;;10566435;28;20471;-49
2021/12/25 21:54:24;;;;;;;17.60;10.53;;;;;;;;;;10564518;28;20603;-46
2021/12/25 21:59:24;;;;;;;16.08;9.70;;;;;;;;;;10560645;28;20551;-43
2021/12/25 22:04:28;;;;;;;15.35;10.07;;;;;;;;;;10570524;28;20475;-50
2021/12/25 22:09:29;;;;;;;15.63;10.38;;;;;;;;;;10563763;28;20051;-48
2021/12/25 22:14:29;;;;;;;15.88;10.60;;;;;;;;;;10565184;28;20042;-40
2021/12/25 22:19:30;;;;;;;14.40;10.43;;;;;;;;;;10576248;28;20054;-39
2021/12/25 22:24:30;;;;;;;13.90;10.67;;;;;;;;;;10563452;28;20028;-39
2021/12/25 22:29:31;;;;;;;15.23;11.05;;;;;;;;;;10568933;28;20978;-39
2021/12/25 22:34:31;;;;;;;18.02;10.05;;;;;;;;;;10577072;28;20096;-40
2021/12/25 22:39:32;;;;;;;18.77;11.03;;;;;;;;;;10576107;28;20050;-39
2021/12/25 22:44:32;;;;;;;14.85;11.02;;;;;;;;;;10571523;28;20480;-39
2021/12/25 22:49:32;;;;;;;13.63;10.23;;;;;;;;;;10569103;28;20124;-39
2021/12/25 22:54:33;;;;;;;15.73;10.50;;;;;;;;;;10572371;28;20027;-40
2021/12/25 22:59:33;;;;;;;17.23;11.65;;;;;;;;;;10571242;28;20444;-39
2021/12/25 23:04:34;;;;;;;14.03;11.00;;;;;;;;;;10575101;28;20027;-40
2021/12/25 23:09:35;;;;;;;18.10;11.93;;;;;;;;;;10575778;28;20533;-40
2021/12/25 23:14:35;;;;;;;17.13;11.82;;;;;;;;;;10576614;28;20081;-39
2021/12/25 23:19:36;;;;;;;18.30;11.98;;;;;;;;;;10576645;28;20027;-41
2021/12/25 23:24:36;;;;;;;15.00;11.27;;;;;;;;;;10574218;28;20118;-40
2021/12/25 23:29:37;;;;;;;16.40;11.60;;;;;;;;;;10556895;28;20482;-40
2021/12/25 23:34:37;;;;;;;16.25;11.77;;;;;;;;;;10565214;28;20482;-42
2021/12/25 23:39:37;;;;;;;16.33;11.63;;;;;;;;;;10561822;28;20039;-46
2021/12/25 23:44:40;;;;;;;16.05;11.70;;;;;;;;;;10564467;28;20534;-39
2021/12/25 23:49:40;;;;;;;19.13;12.05;;;;;;;;;;10569523;28;20375;-39
2021/12/25 23:54:41;;;;;;;19.15;11.68;;;;;;;;;;10551971;28;20034;-40
2021/12/25 23:59:42;;;;;;;15.77;11.40;;;;;;;;;;10572061;28;20130;-39
